createdAt,value
2022-08-23T00:00:12.959Z,20.93
2022-08-23T00:01:04.479Z,20.90
2022-08-23T00:02:05.450Z,20.93
2022-08-23T00:03:04.825Z,20.85
2022-08-23T00:04:04.416Z,20.90
2022-08-23T00:05:09.290Z,20.87
2022-08-23T00:06:04.381Z,20.97
2022-08-23T00:07:04.373Z,20.93
2022-08-23T00:08:04.359Z,20.88
2022-08-23T00:09:04.348Z,20.98
2022-08-23T00:10:04.692Z,20.96
2022-08-23T00:11:04.325Z,20.96
2022-08-23T00:12:04.316Z,20.96
2022-08-23T00:13:04.302Z,20.90
2022-08-23T00:14:04.296Z,20.94
2022-08-23T00:15:04.284Z,20.91
2022-08-23T00:16:04.272Z,20.88
2022-08-23T00:17:04.259Z,20.83
2022-08-23T00:18:04.246Z,20.78
2022-08-23T00:19:04.237Z,20.76
2022-08-23T00:20:04.234Z,20.78
2022-08-23T00:21:04.218Z,20.72
2022-08-23T00:22:04.203Z,20.72
2022-08-23T00:23:04.192Z,20.69
2022-08-23T00:24:04.184Z,20.68
2022-08-23T00:25:04.170Z,20.64
2022-08-23T00:26:04.160Z,20.68
2022-08-23T00:27:04.147Z,20.69
2022-08-23T00:28:04.138Z,20.64
2022-08-23T00:29:04.133Z,20.68
2022-08-23T00:30:04.116Z,20.69
2022-08-23T00:31:04.102Z,20.69
2022-08-23T00:32:04.094Z,20.68
2022-08-23T00:33:04.090Z,20.66
2022-08-23T00:34:04.092Z,20.71
2022-08-23T00:35:04.069Z,20.66
2022-08-23T00:36:04.059Z,20.66
2022-08-23T00:37:04.034Z,20.71
2022-08-23T00:38:33.297Z,20.69
2022-08-23T00:39:04.013Z,20.64
2022-08-23T00:40:04.058Z,20.60
2022-08-23T00:41:04.002Z,20.61
2022-08-23T00:42:03.983Z,20.60
2022-08-23T00:43:05.874Z,20.60
2022-08-23T00:44:03.964Z,20.60
2022-08-23T00:45:03.947Z,20.61
2022-08-23T00:46:03.939Z,20.60
2022-08-23T00:47:03.928Z,20.56
2022-08-23T00:48:03.921Z,20.54
2022-08-23T00:49:03.903Z,20.53
2022-08-23T00:50:03.895Z,20.58
2022-08-23T00:51:03.884Z,20.57
2022-08-23T00:52:03.873Z,20.48
2022-08-23T00:53:03.860Z,20.57
2022-08-23T00:54:03.850Z,20.57
2022-08-23T00:55:03.849Z,20.53
2022-08-23T00:56:03.827Z,20.54
2022-08-23T00:57:04.026Z,20.57
2022-08-23T00:58:03.859Z,20.53
2022-08-23T00:59:03.791Z,20.56
2022-08-23T01:00:03.786Z,20.57
2022-08-23T01:01:03.771Z,20.58
2022-08-23T01:02:03.818Z,20.56
2022-08-23T01:03:03.747Z,20.57
2022-08-23T01:04:04.965Z,20.53
2022-08-23T01:05:03.744Z,20.56
2022-08-23T01:06:03.728Z,20.54
2022-08-23T01:07:03.706Z,20.54
2022-08-23T01:08:03.694Z,20.56
2022-08-23T01:09:03.684Z,20.58
2022-08-23T01:10:03.676Z,20.56
2022-08-23T01:11:03.663Z,20.57
2022-08-23T01:12:03.650Z,20.60
2022-08-23T01:13:03.638Z,20.63
2022-08-23T01:14:03.628Z,20.64
2022-08-23T01:15:03.617Z,20.61
2022-08-23T01:16:03.606Z,20.69
2022-08-23T01:17:03.596Z,20.63
2022-08-23T01:18:03.584Z,20.63
2022-08-23T01:19:03.574Z,20.63
2022-08-23T01:20:03.563Z,20.60
2022-08-23T01:21:03.551Z,20.61
2022-08-23T01:22:03.542Z,20.61
2022-08-23T01:23:03.527Z,20.61
2022-08-23T01:24:03.518Z,20.54
2022-08-23T01:25:07.593Z,20.57
2022-08-23T01:26:03.496Z,20.57
2022-08-23T01:27:03.482Z,20.53
2022-08-23T01:28:03.472Z,20.51
2022-08-23T01:29:03.459Z,20.51
2022-08-23T01:30:03.454Z,20.46
2022-08-23T01:31:03.440Z,20.46
2022-08-23T01:32:03.429Z,20.42
2022-08-23T01:33:03.419Z,20.50
2022-08-23T01:34:03.408Z,20.46
2022-08-23T01:35:03.395Z,20.40
2022-08-23T01:36:04.283Z,20.44
2022-08-23T01:37:03.373Z,20.46
2022-08-23T01:38:03.363Z,20.46
2022-08-23T01:39:03.351Z,20.41
2022-08-23T01:40:03.416Z,20.42
2022-08-23T01:41:03.329Z,20.40
2022-08-23T01:42:07.487Z,20.42
2022-08-23T01:43:03.309Z,20.35
2022-08-23T01:44:03.297Z,20.37
2022-08-23T01:45:03.288Z,20.37
2022-08-23T01:46:03.275Z,20.33
2022-08-23T01:47:03.263Z,20.34
2022-08-23T01:48:03.254Z,20.34
2022-08-23T01:49:06.538Z,20.38
2022-08-23T01:50:03.233Z,20.38
2022-08-23T01:51:03.219Z,20.33
2022-08-23T01:52:03.213Z,20.30
2022-08-23T01:53:03.491Z,20.31
2022-08-23T01:54:03.190Z,20.33
2022-08-23T01:55:03.176Z,20.27
2022-08-23T01:56:03.165Z,20.26
2022-08-23T01:57:03.153Z,20.25
2022-08-23T01:58:03.143Z,20.26
2022-08-23T01:59:03.131Z,20.22
2022-08-23T02:00:03.122Z,20.20
2022-08-23T02:01:03.110Z,20.20
2022-08-23T02:02:03.214Z,20.16
2022-08-23T02:03:03.089Z,20.17
2022-08-23T02:04:04.890Z,20.15
2022-08-23T02:05:03.064Z,20.17
2022-08-23T02:06:03.056Z,20.12
2022-08-23T02:07:03.048Z,20.13
2022-08-23T02:08:03.034Z,20.15
2022-08-23T02:09:03.513Z,20.16
2022-08-23T02:10:03.011Z,20.13
2022-08-23T02:11:03.001Z,20.12
2022-08-23T02:12:02.991Z,20.15
2022-08-23T02:13:02.980Z,20.15
2022-08-23T02:14:02.969Z,20.15
2022-08-23T02:15:02.971Z,20.08
2022-08-23T02:16:02.963Z,20.12
2022-08-23T02:17:04.968Z,20.07
2022-08-23T02:18:02.923Z,20.12
2022-08-23T02:19:02.913Z,20.12
2022-08-23T02:20:02.900Z,20.08
2022-08-23T02:21:02.984Z,20.10
2022-08-23T02:22:02.879Z,20.07
2022-08-23T02:23:02.869Z,20.08
2022-08-23T02:24:02.856Z,20.07
2022-08-23T02:25:02.849Z,20.05
2022-08-23T02:26:02.837Z,20.02
2022-08-23T02:27:02.837Z,20.02
2022-08-23T02:28:02.813Z,20.04
2022-08-23T02:29:02.805Z,20.02
2022-08-23T02:30:02.792Z,20.00
2022-08-23T02:31:02.785Z,19.92
2022-08-23T02:32:02.768Z,19.92
2022-08-23T02:33:02.759Z,19.94
2022-08-23T02:35:05.323Z,19.94
2022-08-23T02:35:55.496Z,19.90
2022-08-23T02:36:55.476Z,19.90
2022-08-23T02:37:55.497Z,19.94
2022-08-23T02:38:55.450Z,19.92
2022-08-23T02:39:55.485Z,19.98
2022-08-23T02:41:00.970Z,19.95
2022-08-23T02:41:55.417Z,20.00
2022-08-23T02:42:55.405Z,19.94
2022-08-23T02:43:55.393Z,19.97
2022-08-23T02:44:55.380Z,19.94
2022-08-23T02:45:55.370Z,19.94
2022-08-23T02:46:55.363Z,19.98
2022-08-23T02:47:55.411Z,19.95
2022-08-23T02:48:55.335Z,19.90
2022-08-23T02:49:55.329Z,19.85
2022-08-23T02:50:55.314Z,19.87
2022-08-23T02:51:55.308Z,19.89
2022-08-23T02:52:55.298Z,19.83
2022-08-23T02:53:55.283Z,19.85
2022-08-23T02:54:58.054Z,19.83
2022-08-23T02:55:55.265Z,19.82
2022-08-23T02:56:55.246Z,19.75
2022-08-23T02:57:55.352Z,19.76
2022-08-23T02:58:55.229Z,19.68
2022-08-23T02:59:55.214Z,19.68
2022-08-23T03:00:55.203Z,19.71
2022-08-23T03:01:55.214Z,19.72
2022-08-23T03:02:55.180Z,19.68
2022-08-23T03:03:55.169Z,19.64
2022-08-23T03:04:55.163Z,19.65
2022-08-23T03:05:55.147Z,19.68
2022-08-23T03:06:55.133Z,19.65
2022-08-23T03:07:55.125Z,19.64
2022-08-23T03:08:55.117Z,19.65
2022-08-23T03:09:55.104Z,19.65
2022-08-23T03:10:55.087Z,19.67
2022-08-23T03:11:55.091Z,19.70
2022-08-23T03:12:55.068Z,19.68
2022-08-23T03:13:55.057Z,19.67
2022-08-23T03:14:55.046Z,19.61
2022-08-23T03:15:55.033Z,19.64
2022-08-23T03:16:57.468Z,19.68
2022-08-23T03:17:55.072Z,19.65
2022-08-23T03:18:55.007Z,19.72
2022-08-23T03:19:54.988Z,19.72
2022-08-23T03:20:54.983Z,19.75
2022-08-23T03:21:54.967Z,19.71
2022-08-23T03:22:55.107Z,19.70
2022-08-23T03:23:54.947Z,19.67
2022-08-23T03:24:54.934Z,19.67
2022-08-23T03:25:54.923Z,19.58
2022-08-23T03:26:54.908Z,19.57
2022-08-23T03:27:54.940Z,19.60
2022-08-23T03:28:54.886Z,19.58
2022-08-23T03:29:54.880Z,19.52
2022-08-23T03:30:54.849Z,19.52
2022-08-23T03:31:54.834Z,19.52
2022-08-23T03:32:54.823Z,19.55
2022-08-23T03:33:54.814Z,19.50
2022-08-23T03:34:54.798Z,19.55
2022-08-23T03:35:54.788Z,19.49
2022-08-23T03:36:54.775Z,19.47
2022-08-23T03:37:55.409Z,19.50
2022-08-23T03:38:54.751Z,19.45
2022-08-23T03:39:54.795Z,19.49
2022-08-23T03:40:54.728Z,19.52
2022-08-23T03:41:54.719Z,19.45
2022-08-23T03:42:54.705Z,19.47
2022-08-23T03:43:54.695Z,19.47
2022-08-23T03:44:56.718Z,19.47
2022-08-23T03:45:54.676Z,19.50
2022-08-23T03:46:54.658Z,19.53
2022-08-23T03:47:54.649Z,19.53
2022-08-23T03:48:54.636Z,19.57
2022-08-23T03:49:54.626Z,19.50
2022-08-23T03:50:54.985Z,19.49
2022-08-23T03:51:54.602Z,19.47
2022-08-23T03:52:54.589Z,19.46
2022-08-23T03:53:54.579Z,19.50
2022-08-23T03:54:54.566Z,19.46
2022-08-23T03:55:54.556Z,19.42
2022-08-23T03:56:54.544Z,19.46
2022-08-23T03:57:54.534Z,19.39
2022-08-23T03:58:54.518Z,19.32
2022-08-23T03:59:54.508Z,19.45
2022-08-23T04:00:54.495Z,19.39
2022-08-23T04:01:54.510Z,19.42
2022-08-23T04:02:54.471Z,19.34
2022-08-23T04:03:54.465Z,19.34
2022-08-23T04:04:54.451Z,19.31
2022-08-23T04:05:54.439Z,19.30
2022-08-23T04:06:54.427Z,19.31
2022-08-23T04:07:54.417Z,19.28
2022-08-23T04:08:54.408Z,19.30
2022-08-23T04:09:55.345Z,19.35
2022-08-23T04:10:54.384Z,19.25
2022-08-23T04:11:54.377Z,19.27
2022-08-23T04:12:54.366Z,19.30
2022-08-23T04:13:54.355Z,19.21
2022-08-23T04:14:54.339Z,19.23
2022-08-23T04:15:54.343Z,19.21
2022-08-23T04:16:55.820Z,19.16
2022-08-23T04:17:54.336Z,19.23
2022-08-23T04:18:54.299Z,19.20
2022-08-23T04:19:54.291Z,19.15
2022-08-23T04:20:54.278Z,19.10
2022-08-23T04:21:54.270Z,19.12
2022-08-23T04:22:54.256Z,19.15
2022-08-23T04:23:54.248Z,19.07
2022-08-23T04:24:54.234Z,19.10
2022-08-23T04:25:54.227Z,19.12
2022-08-23T04:26:54.214Z,19.09
2022-08-23T04:27:54.206Z,19.10
2022-08-23T04:28:54.193Z,19.12
2022-08-23T04:29:54.189Z,19.02
2022-08-23T04:30:54.172Z,19.06
2022-08-23T04:31:54.163Z,19.02
2022-08-23T04:32:54.151Z,19.05
2022-08-23T04:33:54.141Z,19.02
2022-08-23T04:34:54.127Z,18.97
2022-08-23T04:35:54.119Z,18.97
2022-08-23T04:36:55.455Z,19.05
2022-08-23T04:37:54.099Z,19.05
2022-08-23T04:38:54.086Z,19.02
2022-08-23T04:39:54.236Z,19.01
2022-08-23T04:40:54.065Z,18.97
2022-08-23T04:41:54.054Z,18.97
2022-08-23T04:42:54.046Z,19.02
2022-08-23T04:43:54.034Z,18.94
2022-08-23T04:44:54.023Z,18.94
2022-08-23T04:45:54.012Z,18.94
2022-08-23T04:46:54.002Z,18.99
2022-08-23T04:47:53.990Z,18.97
2022-08-23T04:48:53.984Z,18.90
2022-08-23T04:49:53.988Z,18.93
2022-08-23T04:50:53.961Z,18.87
2022-08-23T04:51:54.142Z,18.91
2022-08-23T04:52:53.939Z,18.93
2022-08-23T04:53:53.928Z,18.91
2022-08-23T04:54:53.919Z,18.97
2022-08-23T04:55:53.906Z,18.93
2022-08-23T04:56:53.901Z,18.89
2022-08-23T04:57:53.885Z,18.87
2022-08-23T04:58:53.879Z,18.91
2022-08-23T04:59:53.864Z,18.83
2022-08-23T05:00:53.958Z,18.82
2022-08-23T05:01:53.840Z,18.86
2022-08-23T05:02:53.932Z,18.86
2022-08-23T05:03:53.820Z,18.78
2022-08-23T05:04:53.812Z,18.75
2022-08-23T05:05:53.801Z,18.69
2022-08-23T05:06:53.789Z,18.66
2022-08-23T05:07:53.776Z,18.69
2022-08-23T05:08:53.772Z,18.68
2022-08-23T05:09:53.756Z,18.69
2022-08-23T05:10:53.750Z,18.65
2022-08-23T05:11:53.748Z,18.62
2022-08-23T05:12:53.737Z,18.62
2022-08-23T05:13:53.711Z,18.60
2022-08-23T05:14:53.701Z,18.56
2022-08-23T05:15:53.689Z,18.64
2022-08-23T05:16:53.681Z,18.62
2022-08-23T05:17:53.668Z,18.62
2022-08-23T05:18:53.659Z,18.64
2022-08-23T05:19:53.644Z,18.59
2022-08-23T05:20:53.640Z,18.56
2022-08-23T05:21:56.875Z,18.64
2022-08-23T05:22:53.627Z,18.66
2022-08-23T05:23:54.728Z,18.68
2022-08-23T05:24:53.614Z,18.75
2022-08-23T05:25:53.658Z,18.76
2022-08-23T05:26:53.571Z,18.71
2022-08-23T05:27:53.558Z,18.64
2022-08-23T05:28:53.555Z,18.65
2022-08-23T05:29:53.540Z,18.69
2022-08-23T05:30:56.459Z,18.74
2022-08-23T05:31:53.518Z,18.71
2022-08-23T05:32:53.507Z,18.75
2022-08-23T05:33:53.497Z,18.74
2022-08-23T05:34:53.510Z,18.76
2022-08-23T05:35:53.494Z,18.82
2022-08-23T05:36:55.878Z,18.84
2022-08-23T05:37:53.455Z,18.96
2022-08-23T05:38:53.496Z,18.99
2022-08-23T05:39:53.484Z,19.02
2022-08-23T05:40:54.972Z,19.09
2022-08-23T05:41:53.412Z,19.20
2022-08-23T05:42:53.402Z,19.38
2022-08-23T05:43:53.395Z,19.55
2022-08-23T05:44:53.377Z,19.72
2022-08-23T05:45:53.366Z,19.89
2022-08-23T05:46:53.382Z,19.94
2022-08-23T05:47:55.762Z,19.92
2022-08-23T05:48:53.350Z,19.87
2022-08-23T05:49:53.321Z,19.86
2022-08-23T05:50:53.310Z,19.90
2022-08-23T05:51:53.296Z,19.94
2022-08-23T05:52:53.291Z,19.97
2022-08-23T05:53:53.284Z,19.95
2022-08-23T05:54:53.270Z,20.07
2022-08-23T05:55:53.253Z,20.08
2022-08-23T05:56:53.247Z,20.13
2022-08-23T05:57:53.240Z,20.17
2022-08-23T05:58:57.781Z,20.26
2022-08-23T05:59:53.213Z,20.30
2022-08-23T06:00:53.263Z,20.31
2022-08-23T06:01:53.184Z,20.50
2022-08-23T06:02:53.178Z,20.56
2022-08-23T06:03:53.264Z,20.54
2022-08-23T06:04:57.165Z,20.56
2022-08-23T06:05:53.143Z,20.58
2022-08-23T06:06:53.133Z,20.71
2022-08-23T06:07:53.121Z,20.79
2022-08-23T06:08:53.110Z,20.81
2022-08-23T06:09:53.247Z,20.93
2022-08-23T06:10:53.160Z,21.06
2022-08-23T06:11:53.077Z,21.12
2022-08-23T06:12:53.071Z,21.18
2022-08-23T06:13:53.116Z,21.22
2022-08-23T06:14:53.042Z,21.21
2022-08-23T06:15:53.035Z,21.19
2022-08-23T06:16:56.101Z,21.09
2022-08-23T06:17:53.009Z,21.09
2022-08-23T06:18:53.001Z,21.05
2022-08-23T06:19:52.992Z,21.08
2022-08-23T06:20:53.042Z,21.13
2022-08-23T06:21:52.975Z,21.11
2022-08-23T06:22:52.970Z,21.08
2022-08-23T06:23:52.964Z,21.27
2022-08-23T06:24:52.949Z,21.40
2022-08-23T06:25:52.927Z,21.45
2022-08-23T06:26:52.917Z,21.38
2022-08-23T06:27:52.904Z,21.33
2022-08-23T06:28:53.006Z,21.34
2022-08-23T06:29:52.878Z,21.33
2022-08-23T06:30:52.900Z,21.24
2022-08-23T06:31:52.856Z,21.21
2022-08-23T06:32:52.889Z,21.21
2022-08-23T06:33:53.048Z,21.18
2022-08-23T06:34:52.835Z,21.26
2022-08-23T06:35:53.847Z,21.33
2022-08-23T06:36:52.829Z,21.34
2022-08-23T06:37:52.799Z,21.46
2022-08-23T06:38:52.786Z,21.49
2022-08-23T06:39:52.834Z,21.59
2022-08-23T06:40:52.759Z,21.90
2022-08-23T06:41:52.742Z,22.35
2022-08-23T06:42:52.845Z,22.66
2022-08-23T06:43:52.730Z,22.93
2022-08-23T06:44:52.714Z,23.04
2022-08-23T06:45:58.134Z,23.07
2022-08-23T06:46:52.761Z,23.31
2022-08-23T06:47:52.693Z,23.67
2022-08-23T06:48:52.672Z,23.82
2022-08-23T06:49:58.318Z,24.05
2022-08-23T06:50:52.649Z,24.08
2022-08-23T06:51:52.633Z,24.00
2022-08-23T06:52:52.625Z,23.81
2022-08-23T06:53:52.612Z,23.75
2022-08-23T06:54:52.610Z,23.71
2022-08-23T06:55:52.589Z,23.96
2022-08-23T06:56:52.587Z,24.14
2022-08-23T06:57:52.569Z,24.15
2022-08-23T06:58:53.002Z,24.08
2022-08-23T06:59:52.547Z,23.77
2022-08-23T07:00:57.220Z,23.78
2022-08-23T07:01:52.664Z,23.79
2022-08-23T07:02:52.598Z,23.87
2022-08-23T07:03:52.503Z,23.97
2022-08-23T07:04:52.495Z,23.96
2022-08-23T07:05:52.487Z,24.14
2022-08-23T07:06:52.472Z,24.44
2022-08-23T07:07:52.457Z,24.99
2022-08-23T07:08:52.449Z,25.04
2022-08-23T07:09:52.437Z,25.42
2022-08-23T07:10:52.455Z,25.61
2022-08-23T07:11:52.455Z,25.51
2022-08-23T07:12:52.427Z,25.51
2022-08-23T07:13:52.396Z,25.78
2022-08-23T07:14:52.388Z,25.82
2022-08-23T07:15:52.436Z,26.00
2022-08-23T07:16:52.365Z,26.23
2022-08-23T07:17:52.355Z,26.39
2022-08-23T07:18:52.341Z,25.91
2022-08-23T07:19:52.328Z,25.56
2022-08-23T07:20:52.320Z,25.22
2022-08-23T07:21:52.304Z,25.11
2022-08-23T07:22:52.311Z,24.84
2022-08-23T07:23:52.292Z,24.74
2022-08-23T07:24:52.273Z,24.64
2022-08-23T07:25:52.262Z,24.63
2022-08-23T07:26:52.255Z,24.59
2022-08-23T07:27:52.589Z,24.60
2022-08-23T07:28:52.230Z,24.55
2022-08-23T07:29:52.215Z,24.60
2022-08-23T07:30:52.209Z,24.64
2022-08-23T07:31:52.290Z,24.67
2022-08-23T07:32:52.186Z,24.53
2022-08-23T07:33:52.180Z,24.45
2022-08-23T07:34:52.187Z,24.55
2022-08-23T07:35:52.183Z,24.61
2022-08-23T07:36:52.156Z,24.59
2022-08-23T07:37:52.147Z,24.79
2022-08-23T07:38:52.119Z,25.12
2022-08-23T07:39:52.150Z,25.22
2022-08-23T07:40:53.870Z,25.09
2022-08-23T07:41:52.088Z,25.17
2022-08-23T07:42:52.084Z,25.34
2022-08-23T07:43:52.068Z,25.46
2022-08-23T07:44:52.696Z,25.26
2022-08-23T07:45:52.044Z,25.17
2022-08-23T07:46:52.079Z,25.39
2022-08-23T07:47:52.051Z,25.61
2022-08-23T07:48:54.651Z,25.81
2022-08-23T07:49:52.014Z,25.66
2022-08-23T07:50:56.008Z,25.69
2022-08-23T07:51:53.004Z,25.69
2022-08-23T07:52:51.970Z,25.72
2022-08-23T07:53:51.956Z,25.53
2022-08-23T07:54:51.946Z,25.48
2022-08-23T07:55:51.935Z,25.51
2022-08-23T07:56:51.926Z,25.53
2022-08-23T07:57:51.929Z,25.56
2022-08-23T07:58:51.949Z,25.41
2022-08-23T07:59:51.891Z,25.42
2022-08-23T08:00:51.880Z,25.49
2022-08-23T08:01:51.948Z,25.57
2022-08-23T08:02:52.699Z,25.69
2022-08-23T08:03:51.850Z,25.74
2022-08-23T08:04:51.847Z,25.74
2022-08-23T08:05:51.825Z,26.44
2022-08-23T08:07:05.167Z,27.06
2022-08-23T08:07:52.835Z,27.48
2022-08-23T08:08:51.810Z,27.87
2022-08-23T08:09:51.876Z,28.08
2022-08-23T08:10:51.774Z,28.30
2022-08-23T08:11:51.768Z,28.46
2022-08-23T08:12:51.756Z,28.85
2022-08-23T08:13:51.756Z,28.74
2022-08-23T08:14:51.734Z,28.92
2022-08-23T08:15:51.772Z,28.82
2022-08-23T08:16:51.713Z,29.08
2022-08-23T08:17:51.699Z,29.26
2022-08-23T08:18:51.687Z,29.32
2022-08-23T08:19:51.718Z,29.57
2022-08-23T08:20:51.738Z,29.85
2022-08-23T08:21:51.672Z,29.92
2022-08-23T08:22:58.403Z,29.89
2022-08-23T08:23:51.633Z,29.60
2022-08-23T08:24:51.625Z,29.62
2022-08-23T08:25:51.614Z,29.79
2022-08-23T08:26:51.616Z,30.11
2022-08-23T08:27:51.595Z,30.26
2022-08-23T08:28:51.585Z,30.15
2022-08-23T08:29:51.570Z,30.04
2022-08-23T08:30:51.567Z,30.08
2022-08-23T08:31:54.325Z,29.89
2022-08-23T08:32:51.553Z,29.85
2022-08-23T08:33:51.531Z,29.71
2022-08-23T08:34:51.525Z,29.79
2022-08-23T08:35:58.942Z,30.03
2022-08-23T08:36:51.507Z,30.01
2022-08-23T08:37:51.502Z,30.23
2022-08-23T08:38:54.349Z,30.32
2022-08-23T08:39:51.514Z,30.63
2022-08-23T08:40:51.461Z,30.45
2022-08-23T08:41:55.135Z,30.61
2022-08-23T08:42:51.435Z,30.63
2022-08-23T08:43:51.749Z,30.70
2022-08-23T08:44:51.424Z,30.64
2022-08-23T08:45:58.682Z,30.67
2022-08-23T08:46:51.415Z,30.79
2022-08-23T08:47:51.383Z,30.81
2022-08-23T08:48:51.571Z,30.93
2022-08-23T08:49:51.364Z,31.04
2022-08-23T08:50:51.359Z,31.28
2022-08-23T08:51:52.088Z,31.42
2022-08-23T08:52:51.398Z,31.37
2022-08-23T08:53:51.422Z,31.04
2022-08-23T08:54:53.316Z,31.13
2022-08-23T08:55:51.519Z,31.35
2022-08-23T08:56:51.501Z,31.67
2022-08-23T08:57:51.479Z,31.52
2022-08-23T08:58:51.271Z,30.91
2022-08-23T08:59:51.263Z,30.56
2022-08-23T09:00:55.582Z,30.97
2022-08-23T09:01:51.286Z,31.42
2022-08-23T09:02:51.258Z,31.62
2022-08-23T09:03:52.377Z,31.72
2022-08-23T09:04:51.680Z,31.71
2022-08-23T09:05:51.225Z,31.52
2022-08-23T09:06:51.210Z,31.47
2022-08-23T09:07:51.181Z,31.54
2022-08-23T09:08:51.174Z,31.75
2022-08-23T09:09:51.163Z,31.84
2022-08-23T09:10:51.152Z,31.85
2022-08-23T09:11:51.142Z,31.69
2022-08-23T09:12:51.130Z,31.60
2022-08-23T09:13:51.123Z,31.40
2022-08-23T09:14:51.112Z,31.68
2022-08-23T09:15:51.145Z,31.78
2022-08-23T09:16:51.173Z,31.95
2022-08-23T09:17:51.098Z,32.41
2022-08-23T09:18:51.072Z,32.62
2022-08-23T09:19:51.076Z,32.53
2022-08-23T09:20:51.050Z,32.14
2022-08-23T09:21:51.045Z,32.12
2022-08-23T09:22:51.033Z,32.24
2022-08-23T09:24:00.575Z,32.49
2022-08-23T09:24:51.013Z,32.35
2022-08-23T09:25:50.999Z,32.50
2022-08-23T09:26:51.058Z,32.54
2022-08-23T09:27:51.230Z,32.83
2022-08-23T09:28:50.971Z,33.20
2022-08-23T09:29:50.986Z,33.17
2022-08-23T09:30:50.997Z,33.00
2022-08-23T09:31:51.061Z,33.07
2022-08-23T09:32:50.931Z,33.37
2022-08-23T09:33:50.924Z,32.96
2022-08-23T09:34:50.910Z,32.59
2022-08-23T09:35:50.904Z,32.54
2022-08-23T09:36:52.301Z,32.73
2022-08-23T09:37:50.882Z,32.93
2022-08-23T09:38:50.878Z,33.18
2022-08-23T09:39:51.143Z,33.44
2022-08-23T09:40:51.163Z,33.34
2022-08-23T09:41:50.842Z,32.63
2022-08-23T09:42:50.830Z,32.27
2022-08-23T09:43:50.829Z,32.46
2022-08-23T09:44:50.809Z,32.77
2022-08-23T09:45:50.800Z,32.96
2022-08-23T09:46:50.786Z,33.09
2022-08-23T09:47:50.778Z,33.49
2022-08-23T09:48:50.768Z,33.21
2022-08-23T09:49:50.759Z,33.24
2022-08-23T09:50:50.877Z,33.75
2022-08-23T09:51:50.968Z,33.99
2022-08-23T09:52:50.733Z,33.96
2022-08-23T09:53:50.720Z,33.60
2022-08-23T09:54:50.762Z,33.26
2022-08-23T09:55:50.698Z,32.88
2022-08-23T09:56:50.689Z,33.07
2022-08-23T09:57:50.678Z,33.65
2022-08-23T09:58:50.667Z,33.41
2022-08-23T09:59:50.660Z,33.40
2022-08-23T10:00:50.646Z,33.40
2022-08-23T10:01:50.817Z,33.43
2022-08-23T10:02:50.898Z,33.74
2022-08-23T10:03:50.622Z,33.44
2022-08-23T10:04:50.662Z,33.50
2022-08-23T10:05:50.603Z,33.71
2022-08-23T10:06:50.592Z,33.90
2022-08-23T10:07:50.591Z,34.14
2022-08-23T10:08:50.573Z,33.77
2022-08-23T10:09:50.571Z,33.97
2022-08-23T10:10:51.033Z,34.09
2022-08-23T10:11:50.549Z,34.43
2022-08-23T10:12:50.535Z,34.56
2022-08-23T10:13:50.530Z,33.99
2022-08-23T10:14:50.517Z,33.97
2022-08-23T10:15:50.549Z,34.00
2022-08-23T10:16:50.530Z,34.19
2022-08-23T10:17:50.528Z,34.67
2022-08-23T10:18:50.608Z,34.91
2022-08-23T10:19:50.505Z,34.58
2022-08-23T10:20:50.529Z,34.69
2022-08-23T10:21:50.558Z,34.48
2022-08-23T10:22:50.567Z,34.36
2022-08-23T10:23:50.537Z,34.16
2022-08-23T10:24:50.450Z,33.79
2022-08-23T10:25:50.412Z,33.50
2022-08-23T10:26:50.400Z,33.93
2022-08-23T10:27:50.388Z,33.63
2022-08-23T10:28:50.381Z,33.96
2022-08-23T10:29:50.454Z,34.05
2022-08-23T10:30:50.420Z,34.28
2022-08-23T10:31:50.351Z,34.36
2022-08-23T10:32:50.338Z,34.16
2022-08-23T10:33:50.328Z,34.12
2022-08-23T10:34:50.845Z,34.43
2022-08-23T10:35:50.991Z,34.61
2022-08-23T10:36:51.054Z,34.93
2022-08-23T10:37:50.285Z,35.46
2022-08-23T10:38:50.274Z,35.47
2022-08-23T10:39:50.303Z,35.54
2022-08-23T10:40:50.253Z,35.80
2022-08-23T10:41:50.246Z,36.12
2022-08-23T10:42:50.239Z,36.27
2022-08-23T10:43:50.226Z,36.31
2022-08-23T10:44:50.213Z,36.12
2022-08-23T10:45:50.409Z,35.81
2022-08-23T10:46:50.382Z,35.54
2022-08-23T10:47:50.213Z,35.62
2022-08-23T10:48:50.175Z,35.76
2022-08-23T10:49:50.168Z,35.80
2022-08-23T10:50:55.432Z,35.98
2022-08-23T10:51:51.839Z,35.89
2022-08-23T10:52:50.136Z,36.08
2022-08-23T10:53:50.133Z,36.00
2022-08-23T10:54:50.124Z,35.89
2022-08-23T10:55:50.111Z,35.54
2022-08-23T10:56:51.320Z,34.91
2022-08-23T10:57:50.332Z,35.37
2022-08-23T10:58:50.077Z,35.65
2022-08-23T10:59:50.115Z,35.61
2022-08-23T11:00:50.062Z,35.81
2022-08-23T11:01:50.101Z,36.08
2022-08-23T11:02:50.135Z,36.11
2022-08-23T11:03:50.034Z,36.30
2022-08-23T11:04:50.022Z,36.35
2022-08-23T11:05:50.019Z,36.49
2022-08-23T11:06:50.007Z,36.79
2022-08-23T11:07:49.993Z,36.82
2022-08-23T11:08:50.795Z,36.72
2022-08-23T11:09:50.309Z,36.00
2022-08-23T11:10:56.363Z,35.81
2022-08-23T11:11:49.955Z,35.36
2022-08-23T11:12:49.953Z,35.05
2022-08-23T11:13:49.936Z,35.54
2022-08-23T11:14:49.924Z,35.59
2022-08-23T11:15:49.952Z,35.69
2022-08-23T11:16:49.904Z,35.62
2022-08-23T11:17:49.900Z,35.89
2022-08-23T11:18:49.888Z,35.84
2022-08-23T11:19:49.877Z,35.65
2022-08-23T11:20:49.963Z,35.93
2022-08-23T11:21:49.860Z,35.84
2022-08-23T11:22:49.851Z,35.62
2022-08-23T11:23:49.954Z,35.43
2022-08-23T11:24:49.833Z,35.58
2022-08-23T11:25:49.822Z,36.00
2022-08-23T11:26:49.809Z,36.33
2022-08-23T11:27:49.801Z,36.75
2022-08-23T11:28:49.795Z,37.05
2022-08-23T11:29:49.785Z,37.23
2022-08-23T11:30:50.116Z,37.25
2022-08-23T11:31:49.761Z,37.33
2022-08-23T11:32:49.753Z,36.99
2022-08-23T11:33:49.758Z,36.86
2022-08-23T11:34:49.757Z,36.89
2022-08-23T11:35:49.747Z,36.99
2022-08-23T11:36:49.845Z,37.06
2022-08-23T11:37:49.705Z,37.38
2022-08-23T11:38:49.694Z,37.47
2022-08-23T11:39:49.753Z,36.56
2022-08-23T11:40:49.681Z,36.22
2022-08-23T11:41:49.671Z,36.33
2022-08-23T11:42:49.661Z,36.18
2022-08-23T11:43:49.647Z,36.82
2022-08-23T11:44:49.636Z,37.27
2022-08-23T11:45:49.708Z,37.39
2022-08-23T11:46:49.617Z,37.30
2022-08-23T11:47:49.608Z,37.18
2022-08-23T11:48:49.604Z,36.69
2022-08-23T11:49:49.592Z,36.49
2022-08-23T11:50:54.280Z,37.02
2022-08-23T11:51:50.599Z,37.66
2022-08-23T11:52:49.561Z,37.65
2022-08-23T11:53:49.554Z,37.01
2022-08-23T11:54:49.541Z,36.67
2022-08-23T11:55:49.534Z,37.01
2022-08-23T11:56:49.523Z,37.42
2022-08-23T11:57:49.513Z,37.59
2022-08-23T11:58:49.502Z,37.54
2022-08-23T11:59:49.495Z,37.70
2022-08-23T12:00:49.505Z,37.62
2022-08-23T12:01:49.477Z,37.62
2022-08-23T12:02:49.813Z,37.42
2022-08-23T12:03:49.690Z,37.46
2022-08-23T12:04:49.447Z,37.58
2022-08-23T12:05:50.519Z,38.03
2022-08-23T12:06:51.033Z,38.34
2022-08-23T12:07:49.420Z,38.41
2022-08-23T12:08:49.425Z,38.63
2022-08-23T12:09:49.434Z,38.44
2022-08-23T12:10:49.437Z,38.02
2022-08-23T12:11:49.413Z,38.03
2022-08-23T12:12:49.391Z,38.09
2022-08-23T12:13:49.359Z,38.03
2022-08-23T12:14:49.346Z,37.87
2022-08-23T12:15:49.390Z,37.72
2022-08-23T12:16:49.969Z,37.69
2022-08-23T12:17:49.447Z,37.91
2022-08-23T12:18:49.309Z,38.19
2022-08-23T12:19:49.301Z,37.95
2022-08-23T12:20:49.288Z,37.85
2022-08-23T12:21:49.283Z,37.91
2022-08-23T12:22:49.270Z,37.93
2022-08-23T12:23:49.262Z,37.77
2022-08-23T12:24:52.468Z,37.78
2022-08-23T12:25:49.244Z,37.53
2022-08-23T12:26:49.232Z,37.06
2022-08-23T12:27:49.223Z,37.08
2022-08-23T12:28:49.215Z,36.87
2022-08-23T12:29:49.205Z,37.24
2022-08-23T12:30:49.281Z,36.83
2022-08-23T12:31:49.283Z,36.74
2022-08-23T12:32:49.175Z,36.87
2022-08-23T12:33:49.178Z,37.30
2022-08-23T12:34:49.224Z,37.56
2022-08-23T12:35:49.196Z,37.70
2022-08-23T12:36:50.148Z,38.02
2022-08-23T12:37:49.129Z,37.90
2022-08-23T12:38:49.118Z,38.22
2022-08-23T12:39:49.171Z,38.62
2022-08-23T12:40:49.096Z,39.07
2022-08-23T12:41:49.090Z,38.72
2022-08-23T12:42:49.078Z,38.37
2022-08-23T12:43:49.073Z,37.95
2022-08-23T12:44:49.060Z,38.16
2022-08-23T12:45:49.096Z,38.14
2022-08-23T12:46:49.143Z,38.00
2022-08-23T12:47:49.031Z,37.78
2022-08-23T12:48:49.021Z,36.90
2022-08-23T12:49:49.012Z,37.28
2022-08-23T12:50:49.000Z,37.70
2022-08-23T12:51:48.989Z,38.04
2022-08-23T12:52:49.087Z,37.82